Terminal Aerodrome Forecast
Issued by NWS

Home | Current Version | Previous Version | Text Only | Print | Product List | Glossary Off
Versions: 1 2 3 4 5 6 7 8 9 10 11 12 13 14 15

000
FTUS43 KMPX 291134
TAFRWF
TAF
KRWF 291134Z 2912/3012 30005KT P6SM SKC
      TEMPO 2912/2914 4SM BR
     FM291500 33009G15KT P6SM FEW060
     FM292000 31012G19KT P6SM VCTS SCT050CB BKN120
     FM300000 33008KT P6SM SCT060 BKN250
     FM300300 34005KT P6SM SKC=

USA.gov is the U.S. government's official web portal to all federal, state and local government web resources and services.